sensor_id;sensor_type;location;lat;lon;timestamp;temperature;humidity
37530;DHT22;23374;52.758;6.872;2023-05-16T00:00:08;11.10;1.00
37530;DHT22;23374;52.758;6.872;2023-05-16T00:02:29;11.00;1.00
37530;DHT22;23374;52.758;6.872;2023-05-16T00:04:50;11.00;1.00
37530;DHT22;23374;52.758;6.872;2023-05-16T00:07:11;10.90;1.00
37530;DHT22;23374;52.758;6.872;2023-05-16T00:09:31;10.80;1.00
37530;DHT22;23374;52.758;6.872;2023-05-16T00:11:52;10.80;1.00
37530;DHT22;23374;52.758;6.872;2023-05-16T00:14:12;10.80;1.00
37530;DHT22;23374;52.758;6.872;2023-05-16T00:16:33;10.80;1.00
37530;DHT22;23374;52.758;6.872;2023-05-16T00:18:56;10.80;1.00
37530;DHT22;23374;52.758;6.872;2023-05-16T00:21:17;10.80;1.00
37530;DHT22;23374;52.758;6.872;2023-05-16T00:23:40;10.70;1.00
37530;DHT22;23374;52.758;6.872;2023-05-16T00:26:01;10.70;1.00
37530;DHT22;23374;52.758;6.872;2023-05-16T00:28:21;10.60;1.00
37530;DHT22;23374;52.758;6.872;2023-05-16T00:30:41;10.60;1.00
37530;DHT22;23374;52.758;6.872;2023-05-16T00:33:02;10.60;1.00
37530;DHT22;23374;52.758;6.872;2023-05-16T00:35:22;10.50;1.00
37530;DHT22;23374;52.758;6.872;2023-05-16T00:37:43;10.50;1.00
37530;DHT22;23374;52.758;6.872;2023-05-16T00:40:06;10.50;1.00
37530;DHT22;23374;52.758;6.872;2023-05-16T00:42:27;10.40;1.00
37530;DHT22;23374;52.758;6.872;2023-05-16T00:44:47;10.40;1.00
37530;DHT22;23374;52.758;6.872;2023-05-16T00:47:08;10.40;1.00
37530;DHT22;23374;52.758;6.872;2023-05-16T00:49:28;10.30;99.90
37530;DHT22;23374;52.758;6.872;2023-05-16T00:51:48;10.30;1.00
37530;DHT22;23374;52.758;6.872;2023-05-16T00:54:09;10.30;99.90
37530;DHT22;23374;52.758;6.872;2023-05-16T00:56:31;10.20;99.90
37530;DHT22;23374;52.758;6.872;2023-05-16T00:58:52;10.20;99.90
37530;DHT22;23374;52.758;6.872;2023-05-16T01:01:12;10.20;99.90
37530;DHT22;23374;52.758;6.872;2023-05-16T01:03:33;10.20;99.90
37530;DHT22;23374;52.758;6.872;2023-05-16T01:05:56;10.20;99.90
37530;DHT22;23374;52.758;6.872;2023-05-16T01:08:17;10.20;99.90
37530;DHT22;23374;52.758;6.872;2023-05-16T01:10:56;10.10;99.90
37530;DHT22;23374;52.758;6.872;2023-05-16T01:13:59;10.10;99.90
37530;DHT22;23374;52.758;6.872;2023-05-16T01:20:14;10.00;1.00
37530;DHT22;23374;52.758;6.872;2023-05-16T01:24:33;10.00;99.90
37530;DHT22;23374;52.758;6.872;2023-05-16T01:26:58;9.90;1.00
37530;DHT22;23374;52.758;6.872;2023-05-16T01:29:19;9.90;99.90
37530;DHT22;23374;52.758;6.872;2023-05-16T01:31:39;9.90;99.90
37530;DHT22;23374;52.758;6.872;2023-05-16T01:34:00;9.90;99.90
37530;DHT22;23374;52.758;6.872;2023-05-16T01:38:11;9.90;99.90
37530;DHT22;23374;52.758;6.872;2023-05-16T01:40:47;9.90;1.00
37530;DHT22;23374;52.758;6.872;2023-05-16T01:43:14;9.80;99.90
37530;DHT22;23374;52.758;6.872;2023-05-16T01:45:36;9.80;99.90
37530;DHT22;23374;52.758;6.872;2023-05-16T01:48:21;9.80;99.90
37530;DHT22;23374;52.758;6.872;2023-05-16T01:50:46;9.80;99.90
37530;DHT22;23374;52.758;6.872;2023-05-16T01:53:14;9.70;99.90
37530;DHT22;23374;52.758;6.872;2023-05-16T01:55:51;9.70;99.90
37530;DHT22;23374;52.758;6.872;2023-05-16T01:58:19;9.70;99.90
37530;DHT22;23374;52.758;6.872;2023-05-16T02:00:40;9.70;99.90
37530;DHT22;23374;52.758;6.872;2023-05-16T02:03:01;9.60;99.90
37530;DHT22;23374;52.758;6.872;2023-05-16T02:05:21;9.60;99.90
37530;DHT22;23374;52.758;6.872;2023-05-16T02:07:43;9.60;99.90
37530;DHT22;23374;52.758;6.872;2023-05-16T02:10:05;9.50;99.90
37530;DHT22;23374;52.758;6.872;2023-05-16T02:12:25;9.50;99.90
37530;DHT22;23374;52.758;6.872;2023-05-16T02:14:46;9.40;99.90
37530;DHT22;23374;52.758;6.872;2023-05-16T02:17:06;9.40;99.90
37530;DHT22;23374;52.758;6.872;2023-05-16T02:19:27;9.40;99.90
37530;DHT22;23374;52.758;6.872;2023-05-16T02:21:47;9.40;99.90
37530;DHT22;23374;52.758;6.872;2023-05-16T02:24:07;9.30;99.90
37530;DHT22;23374;52.758;6.872;2023-05-16T02:26:28;9.30;99.90
37530;DHT22;23374;52.758;6.872;2023-05-16T02:28:49;9.30;99.90
37530;DHT22;23374;52.758;6.872;2023-05-16T02:31:09;9.20;99.90
37530;DHT22;23374;52.758;6.872;2023-05-16T02:33:30;9.20;99.90
37530;DHT22;23374;52.758;6.872;2023-05-16T02:35:50;9.10;1.00
37530;DHT22;23374;52.758;6.872;2023-05-16T02:38:10;9.10;99.90
37530;DHT22;23374;52.758;6.872;2023-05-16T02:40:36;9.10;1.00
37530;DHT22;23374;52.758;6.872;2023-05-16T02:42:56;9.10;1.00
37530;DHT22;23374;52.758;6.872;2023-05-16T02:45:16;9.10;99.90
37530;DHT22;23374;52.758;6.872;2023-05-16T02:47:37;9.00;1.00
37530;DHT22;23374;52.758;6.872;2023-05-16T02:49:57;9.00;99.90
37530;DHT22;23374;52.758;6.872;2023-05-16T02:52:20;9.00;1.00
37530;DHT22;23374;52.758;6.872;2023-05-16T02:54:41;9.00;1.00
37530;DHT22;23374;52.758;6.872;2023-05-16T02:57:01;9.00;1.00
37530;DHT22;23374;52.758;6.872;2023-05-16T02:59:21;9.00;1.00
37530;DHT22;23374;52.758;6.872;2023-05-16T03:01:41;8.90;1.00
37530;DHT22;23374;52.758;6.872;2023-05-16T03:04:07;8.90;1.00
37530;DHT22;23374;52.758;6.872;2023-05-16T03:06:27;8.90;1.00
37530;DHT22;23374;52.758;6.872;2023-05-16T03:08:49;8.80;1.00
37530;DHT22;23374;52.758;6.872;2023-05-16T03:11:09;8.80;1.00
37530;DHT22;23374;52.758;6.872;2023-05-16T03:13:30;8.70;1.00
37530;DHT22;23374;52.758;6.872;2023-05-16T03:15:52;8.70;1.00
37530;DHT22;23374;52.758;6.872;2023-05-16T03:18:12;8.70;1.00
37530;DHT22;23374;52.758;6.872;2023-05-16T03:20:32;8.70;1.00
37530;DHT22;23374;52.758;6.872;2023-05-16T03:22:52;8.70;1.00
37530;DHT22;23374;52.758;6.872;2023-05-16T03:25:13;8.70;1.00
37530;DHT22;23374;52.758;6.872;2023-05-16T03:27:33;8.70;1.00
37530;DHT22;23374;52.758;6.872;2023-05-16T03:29:53;8.70;1.00
37530;DHT22;23374;52.758;6.872;2023-05-16T03:32:14;8.70;1.00
37530;DHT22;23374;52.758;6.872;2023-05-16T03:34:35;8.70;1.00
37530;DHT22;23374;52.758;6.872;2023-05-16T03:36:56;8.70;1.00
37530;DHT22;23374;52.758;6.872;2023-05-16T03:39:16;8.70;1.00
37530;DHT22;23374;52.758;6.872;2023-05-16T03:41:37;8.80;1.00
37530;DHT22;23374;52.758;6.872;2023-05-16T03:43:57;8.80;1.00
37530;DHT22;23374;52.758;6.872;2023-05-16T03:46:17;8.80;1.00
37530;DHT22;23374;52.758;6.872;2023-05-16T03:48:37;8.90;1.00
37530;DHT22;23374;52.758;6.872;2023-05-16T03:50:58;9.00;1.00
37530;DHT22;23374;52.758;6.872;2023-05-16T03:53:19;9.00;1.00
37530;DHT22;23374;52.758;6.872;2023-05-16T03:55:40;9.00;1.00
37530;DHT22;23374;52.758;6.872;2023-05-16T03:58:00;9.00;1.00
37530;DHT22;23374;52.758;6.872;2023-05-16T04:00:20;9.00;1.00
37530;DHT22;23374;52.758;6.872;2023-05-16T04:02:40;9.00;1.00
37530;DHT22;23374;52.758;6.872;2023-05-16T04:05:01;9.00;1.00
37530;DHT22;23374;52.758;6.872;2023-05-16T04:07:22;9.00;1.00
37530;DHT22;23374;52.758;6.872;2023-05-16T04:09:43;9.00;1.00
37530;DHT22;23374;52.758;6.872;2023-05-16T04:12:03;9.00;1.00
37530;DHT22;23374;52.758;6.872;2023-05-16T04:14:24;9.00;1.00
37530;DHT22;23374;52.758;6.872;2023-05-16T04:16:44;8.90;1.00
37530;DHT22;23374;52.758;6.872;2023-05-16T04:19:05;8.90;1.00
37530;DHT22;23374;52.758;6.872;2023-05-16T04:21:25;8.90;1.00
37530;DHT22;23374;52.758;6.872;2023-05-16T04:23:45;8.90;1.00
37530;DHT22;23374;52.758;6.872;2023-05-16T04:26:05;8.90;1.00
37530;DHT22;23374;52.758;6.872;2023-05-16T04:28:26;8.90;1.00
37530;DHT22;23374;52.758;6.872;2023-05-16T04:30:46;8.90;1.00
37530;DHT22;23374;52.758;6.872;2023-05-16T04:33:07;8.90;1.00
37530;DHT22;23374;52.758;6.872;2023-05-16T04:35:28;8.80;1.00
37530;DHT22;23374;52.758;6.872;2023-05-16T04:37:48;8.80;1.00
37530;DHT22;23374;52.758;6.872;2023-05-16T04:40:09;8.80;1.00
37530;DHT22;23374;52.758;6.872;2023-05-16T04:42:30;8.80;1.00
37530;DHT22;23374;52.758;6.872;2023-05-16T04:44:51;8.80;1.00
37530;DHT22;23374;52.758;6.872;2023-05-16T04:47:11;8.80;1.00
37530;DHT22;23374;52.758;6.872;2023-05-16T04:49:32;8.90;1.00
37530;DHT22;23374;52.758;6.872;2023-05-16T04:51:52;8.90;1.00
37530;DHT22;23374;52.758;6.872;2023-05-16T04:54:12;8.90;1.00
37530;DHT22;23374;52.758;6.872;2023-05-16T04:56:32;9.00;1.00
37530;DHT22;23374;52.758;6.872;2023-05-16T04:58:53;9.20;1.00
37530;DHT22;23374;52.758;6.872;2023-05-16T05:01:14;9.50;1.00
37530;DHT22;23374;52.758;6.872;2023-05-16T05:03:35;9.80;1.00
37530;DHT22;23374;52.758;6.872;2023-05-16T05:05:55;10.00;99.90
37530;DHT22;23374;52.758;6.872;2023-05-16T05:08:16;10.20;99.90
37530;DHT22;23374;52.758;6.872;2023-05-16T05:10:37;10.50;99.90
37530;DHT22;23374;52.758;6.872;2023-05-16T05:12:57;10.80;99.90
37530;DHT22;23374;52.758;6.872;2023-05-16T05:15:18;11.00;29.30
37530;DHT22;23374;52.758;6.872;2023-05-16T05:17:38;11.10;1.00
37530;DHT22;23374;52.758;6.872;2023-05-16T05:19:59;11.20;1.00
37530;DHT22;23374;52.758;6.872;2023-05-16T05:22:20;11.40;1.00
37530;DHT22;23374;52.758;6.872;2023-05-16T05:24:40;11.60;1.00
37530;DHT22;23374;52.758;6.872;2023-05-16T05:27:01;11.90;1.00
37530;DHT22;23374;52.758;6.872;2023-05-16T05:29:21;12.10;1.00
37530;DHT22;23374;52.758;6.872;2023-05-16T05:31:42;12.20;1.00
37530;DHT22;23374;52.758;6.872;2023-05-16T05:34:02;12.40;99.90
37530;DHT22;23374;52.758;6.872;2023-05-16T05:36:23;12.50;1.00
37530;DHT22;23374;52.758;6.872;2023-05-16T05:38:43;12.70;99.90
37530;DHT22;23374;52.758;6.872;2023-05-16T05:41:04;12.70;99.90
37530;DHT22;23374;52.758;6.872;2023-05-16T05:43:26;12.90;1.00
37530;DHT22;23374;52.758;6.872;2023-05-16T05:45:46;13.00;99.90
37530;DHT22;23374;52.758;6.872;2023-05-16T05:48:06;13.10;99.90
37530;DHT22;23374;52.758;6.872;2023-05-16T05:50:27;13.20;99.90
37530;DHT22;23374;52.758;6.872;2023-05-16T05:52:48;13.20;99.90
37530;DHT22;23374;52.758;6.872;2023-05-16T05:55:08;13.20;53.10
37530;DHT22;23374;52.758;6.872;2023-05-16T05:57:28;13.20;31.00
37530;DHT22;23374;52.758;6.872;2023-05-16T05:59:49;13.20;99.90
37530;DHT22;23374;52.758;6.872;2023-05-16T06:02:10;13.10;99.90
37530;DHT22;23374;52.758;6.872;2023-05-16T06:04:30;13.00;99.90
37530;DHT22;23374;52.758;6.872;2023-05-16T06:06:50;12.80;99.90
37530;DHT22;23374;52.758;6.872;2023-05-16T06:09:11;12.50;99.70
37530;DHT22;23374;52.758;6.872;2023-05-16T06:11:32;12.30;99.90
37530;DHT22;23374;52.758;6.872;2023-05-16T06:13:53;12.00;99.90
37530;DHT22;23374;52.758;6.872;2023-05-16T06:16:13;11.90;99.90
37530;DHT22;23374;52.758;6.872;2023-05-16T06:18:33;11.80;1.00
37530;DHT22;23374;52.758;6.872;2023-05-16T06:20:53;11.70;1.00
37530;DHT22;23374;52.758;6.872;2023-05-16T06:23:14;11.60;99.90
37530;DHT22;23374;52.758;6.872;2023-05-16T06:25:34;11.40;1.00
37530;DHT22;23374;52.758;6.872;2023-05-16T06:27:55;11.30;1.00
37530;DHT22;23374;52.758;6.872;2023-05-16T06:30:15;11.30;1.00
37530;DHT22;23374;52.758;6.872;2023-05-16T06:32:36;11.30;1.00
37530;DHT22;23374;52.758;6.872;2023-05-16T06:34:56;11.20;1.00
37530;DHT22;23374;52.758;6.872;2023-05-16T06:37:16;11.20;1.00
37530;DHT22;23374;52.758;6.872;2023-05-16T06:39:37;11.20;1.00
37530;DHT22;23374;52.758;6.872;2023-05-16T06:41:57;11.20;1.00
37530;DHT22;23374;52.758;6.872;2023-05-16T06:44:18;11.20;1.00
37530;DHT22;23374;52.758;6.872;2023-05-16T06:46:38;11.20;1.00
37530;DHT22;23374;52.758;6.872;2023-05-16T06:48:58;11.20;1.00
37530;DHT22;23374;52.758;6.872;2023-05-16T06:51:18;11.30;99.90
37530;DHT22;23374;52.758;6.872;2023-05-16T06:53:39;11.30;99.90
37530;DHT22;23374;52.758;6.872;2023-05-16T06:56:00;11.30;99.90
37530;DHT22;23374;52.758;6.872;2023-05-16T06:58:20;11.40;99.90
37530;DHT22;23374;52.758;6.872;2023-05-16T07:00:41;11.40;99.90
37530;DHT22;23374;52.758;6.872;2023-05-16T07:03:03;11.50;99.90
37530;DHT22;23374;52.758;6.872;2023-05-16T07:05:24;11.50;99.90
37530;DHT22;23374;52.758;6.872;2023-05-16T07:07:44;11.40;99.90
37530;DHT22;23374;52.758;6.872;2023-05-16T07:10:06;11.40;99.90
37530;DHT22;23374;52.758;6.872;2023-05-16T07:12:26;11.40;99.90
37530;DHT22;23374;52.758;6.872;2023-05-16T07:14:47;11.40;99.90
37530;DHT22;23374;52.758;6.872;2023-05-16T07:17:07;11.50;99.90
37530;DHT22;23374;52.758;6.872;2023-05-16T07:19:28;11.50;99.90
37530;DHT22;23374;52.758;6.872;2023-05-16T07:21:48;11.50;99.90
37530;DHT22;23374;52.758;6.872;2023-05-16T07:24:08;11.60;99.90
37530;DHT22;23374;52.758;6.872;2023-05-16T07:26:29;11.60;99.90
37530;DHT22;23374;52.758;6.872;2023-05-16T07:28:50;11.70;99.90
37530;DHT22;23374;52.758;6.872;2023-05-16T07:31:10;11.80;99.90
37530;DHT22;23374;52.758;6.872;2023-05-16T07:33:30;11.90;99.90
37530;DHT22;23374;52.758;6.872;2023-05-16T07:35:51;12.00;16.30
37530;DHT22;23374;52.758;6.872;2023-05-16T07:38:12;12.00;1.00
37530;DHT22;23374;52.758;6.872;2023-05-16T07:40:33;12.10;1.00
37530;DHT22;23374;52.758;6.872;2023-05-16T07:42:54;12.10;1.00
37530;DHT22;23374;52.758;6.872;2023-05-16T07:45:14;12.00;1.00
37530;DHT22;23374;52.758;6.872;2023-05-16T07:47:35;11.90;1.00
37530;DHT22;23374;52.758;6.872;2023-05-16T07:49:55;11.90;1.00
37530;DHT22;23374;52.758;6.872;2023-05-16T07:52:16;12.00;1.00
37530;DHT22;23374;52.758;6.872;2023-05-16T07:54:37;12.00;1.00
37530;DHT22;23374;52.758;6.872;2023-05-16T07:56:57;12.00;1.00
37530;DHT22;23374;52.758;6.872;2023-05-16T07:59:18;12.10;1.00
37530;DHT22;23374;52.758;6.872;2023-05-16T08:01:38;12.20;1.00
37530;DHT22;23374;52.758;6.872;2023-05-16T08:03:58;12.20;1.00
37530;DHT22;23374;52.758;6.872;2023-05-16T08:06:19;12.20;1.00
37530;DHT22;23374;52.758;6.872;2023-05-16T08:08:39;12.30;1.00
37530;DHT22;23374;52.758;6.872;2023-05-16T08:10:59;12.40;1.00
37530;DHT22;23374;52.758;6.872;2023-05-16T08:13:20;12.50;1.00
37530;DHT22;23374;52.758;6.872;2023-05-16T08:15:40;12.60;1.00
37530;DHT22;23374;52.758;6.872;2023-05-16T08:18:01;12.70;1.00
37530;DHT22;23374;52.758;6.872;2023-05-16T08:20:22;12.80;1.00
37530;DHT22;23374;52.758;6.872;2023-05-16T08:22:42;12.70;1.00
37530;DHT22;23374;52.758;6.872;2023-05-16T08:25:03;12.80;1.00
37530;DHT22;23374;52.758;6.872;2023-05-16T08:27:25;12.80;1.00
37530;DHT22;23374;52.758;6.872;2023-05-16T08:29:46;12.90;1.00
37530;DHT22;23374;52.758;6.872;2023-05-16T08:32:08;12.90;1.00
37530;DHT22;23374;52.758;6.872;2023-05-16T08:34:30;12.90;99.90
37530;DHT22;23374;52.758;6.872;2023-05-16T08:36:51;12.90;99.90
37530;DHT22;23374;52.758;6.872;2023-05-16T08:39:11;12.90;99.90
37530;DHT22;23374;52.758;6.872;2023-05-16T08:41:32;12.90;99.90
37530;DHT22;23374;52.758;6.872;2023-05-16T08:43:52;13.00;99.90
37530;DHT22;23374;52.758;6.872;2023-05-16T08:46:13;13.00;99.90
37530;DHT22;23374;52.758;6.872;2023-05-16T08:48:35;13.10;1.00
37530;DHT22;23374;52.758;6.872;2023-05-16T08:50:57;13.30;99.90
37530;DHT22;23374;52.758;6.872;2023-05-16T08:53:22;13.30;1.00
37530;DHT22;23374;52.758;6.872;2023-05-16T08:55:46;13.20;99.90
37530;DHT22;23374;52.758;6.872;2023-05-16T08:58:07;13.20;1.00
37530;DHT22;23374;52.758;6.872;2023-05-16T09:00:28;13.10;99.90
37530;DHT22;23374;52.758;6.872;2023-05-16T09:02:48;13.00;1.00
37530;DHT22;23374;52.758;6.872;2023-05-16T09:05:12;13.00;99.90
37530;DHT22;23374;52.758;6.872;2023-05-16T09:07:33;13.00;99.90
37530;DHT22;23374;52.758;6.872;2023-05-16T09:09:53;13.10;1.00
37530;DHT22;23374;52.758;6.872;2023-05-16T09:12:14;13.20;99.90
37530;DHT22;23374;52.758;6.872;2023-05-16T09:14:34;13.30;99.90
37530;DHT22;23374;52.758;6.872;2023-05-16T09:17:08;13.40;99.90
37530;DHT22;23374;52.758;6.872;2023-05-16T09:19:39;13.50;99.90
37530;DHT22;23374;52.758;6.872;2023-05-16T09:22:01;13.60;99.90
37530;DHT22;23374;52.758;6.872;2023-05-16T09:24:24;13.70;99.90
37530;DHT22;23374;52.758;6.872;2023-05-16T09:26:45;13.80;99.90
37530;DHT22;23374;52.758;6.872;2023-05-16T09:29:12;13.70;99.90
37530;DHT22;23374;52.758;6.872;2023-05-16T09:31:33;13.60;99.90
37530;DHT22;23374;52.758;6.872;2023-05-16T09:33:57;13.50;99.90
37530;DHT22;23374;52.758;6.872;2023-05-16T09:36:18;13.50;99.90
37530;DHT22;23374;52.758;6.872;2023-05-16T09:38:38;13.60;99.90
37530;DHT22;23374;52.758;6.872;2023-05-16T09:40:59;13.60;99.90
37530;DHT22;23374;52.758;6.872;2023-05-16T09:43:25;13.70;99.90
37530;DHT22;23374;52.758;6.872;2023-05-16T09:45:47;13.80;99.90
37530;DHT22;23374;52.758;6.872;2023-05-16T09:48:10;13.90;99.90
37530;DHT22;23374;52.758;6.872;2023-05-16T09:50:35;13.90;99.90
37530;DHT22;23374;52.758;6.872;2023-05-16T09:52:56;14.00;99.90
37530;DHT22;23374;52.758;6.872;2023-05-16T09:55:16;14.10;99.90
37530;DHT22;23374;52.758;6.872;2023-05-16T09:57:37;14.30;99.90
37530;DHT22;23374;52.758;6.872;2023-05-16T10:00:09;14.30;99.90
37530;DHT22;23374;52.758;6.872;2023-05-16T10:02:31;14.20;99.90
37530;DHT22;23374;52.758;6.872;2023-05-16T10:04:52;14.20;99.90
37530;DHT22;23374;52.758;6.872;2023-05-16T10:07:13;14.00;99.90
37530;DHT22;23374;52.758;6.872;2023-05-16T10:09:34;13.90;99.90
37530;DHT22;23374;52.758;6.872;2023-05-16T10:11:55;13.70;99.90
37530;DHT22;23374;52.758;6.872;2023-05-16T10:14:19;13.60;99.90
37530;DHT22;23374;52.758;6.872;2023-05-16T10:16:43;13.60;1.00
37530;DHT22;23374;52.758;6.872;2023-05-16T10:19:05;13.80;99.90
37530;DHT22;23374;52.758;6.872;2023-05-16T10:21:27;13.90;99.90
37530;DHT22;23374;52.758;6.872;2023-05-16T10:23:50;14.00;99.90
37530;DHT22;23374;52.758;6.872;2023-05-16T10:26:13;14.10;99.90
37530;DHT22;23374;52.758;6.872;2023-05-16T10:28:35;14.30;99.90
37530;DHT22;23374;52.758;6.872;2023-05-16T10:30:56;14.30;99.90
37530;DHT22;23374;52.758;6.872;2023-05-16T10:33:18;14.30;99.90
37530;DHT22;23374;52.758;6.872;2023-05-16T10:35:39;14.30;99.90
37530;DHT22;23374;52.758;6.872;2023-05-16T10:38:00;14.20;99.90
37530;DHT22;23374;52.758;6.872;2023-05-16T10:40:21;14.10;99.90
37530;DHT22;23374;52.758;6.872;2023-05-16T10:43:01;14.00;99.90
37530;DHT22;23374;52.758;6.872;2023-05-16T10:45:23;13.90;99.90
37530;DHT22;23374;52.758;6.872;2023-05-16T10:47:58;13.90;99.90
37530;DHT22;23374;52.758;6.872;2023-05-16T10:52:12;13.80;99.90
37530;DHT22;23374;52.758;6.872;2023-05-16T10:54:43;13.60;99.90
37530;DHT22;23374;52.758;6.872;2023-05-16T10:57:18;13.60;99.90
37530;DHT22;23374;52.758;6.872;2023-05-16T10:59:48;13.80;99.90
37530;DHT22;23374;52.758;6.872;2023-05-16T11:02:32;13.90;99.90
37530;DHT22;23374;52.758;6.872;2023-05-16T11:04:58;14.10;99.90
37530;DHT22;23374;52.758;6.872;2023-05-16T11:07:21;14.30;99.90
37530;DHT22;23374;52.758;6.872;2023-05-16T11:09:49;14.60;99.90
37530;DHT22;23374;52.758;6.872;2023-05-16T11:12:12;14.70;99.90
37530;DHT22;23374;52.758;6.872;2023-05-16T11:14:39;14.70;99.90
37530;DHT22;23374;52.758;6.872;2023-05-16T11:17:23;14.70;99.90
37530;DHT22;23374;52.758;6.872;2023-05-16T11:19:54;14.60;99.90
37530;DHT22;23374;52.758;6.872;2023-05-16T11:22:51;14.60;99.90
37530;DHT22;23374;52.758;6.872;2023-05-16T11:25:37;14.50;99.90
37530;DHT22;23374;52.758;6.872;2023-05-16T11:28:00;14.50;99.90
37530;DHT22;23374;52.758;6.872;2023-05-16T11:30:21;14.60;99.90
37530;DHT22;23374;52.758;6.872;2023-05-16T11:32:44;14.70;1.00
37530;DHT22;23374;52.758;6.872;2023-05-16T11:35:09;14.80;99.90
37530;DHT22;23374;52.758;6.872;2023-05-16T11:37:30;15.00;1.00
37530;DHT22;23374;52.758;6.872;2023-05-16T11:39:50;15.10;99.90
37530;DHT22;23374;52.758;6.872;2023-05-16T11:42:11;15.10;99.90
37530;DHT22;23374;52.758;6.872;2023-05-16T11:44:32;14.90;1.00
37530;DHT22;23374;52.758;6.872;2023-05-16T11:46:52;14.90;99.90
37530;DHT22;23374;52.758;6.872;2023-05-16T11:49:13;14.80;1.00
37530;DHT22;23374;52.758;6.872;2023-05-16T11:51:41;14.90;99.90
37530;DHT22;23374;52.758;6.872;2023-05-16T11:54:03;15.00;99.90
37530;DHT22;23374;52.758;6.872;2023-05-16T11:56:26;15.10;99.90
37530;DHT22;23374;52.758;6.872;2023-05-16T11:58:47;15.30;99.90
37530;DHT22;23374;52.758;6.872;2023-05-16T12:01:07;15.50;1.00
37530;DHT22;23374;52.758;6.872;2023-05-16T12:03:29;15.50;99.90
37530;DHT22;23374;52.758;6.872;2023-05-16T12:05:54;15.50;99.90
37530;DHT22;23374;52.758;6.872;2023-05-16T12:08:17;15.40;39.70
37530;DHT22;23374;52.758;6.872;2023-05-16T12:10:37;15.20;1.00
37530;DHT22;23374;52.758;6.872;2023-05-16T12:12:57;15.20;99.90
37530;DHT22;23374;52.758;6.872;2023-05-16T12:15:18;15.30;1.00
37530;DHT22;23374;52.758;6.872;2023-05-16T12:17:39;15.40;99.90
37530;DHT22;23374;52.758;6.872;2023-05-16T12:20:00;15.50;26.90
37530;DHT22;23374;52.758;6.872;2023-05-16T12:22:24;15.60;95.10
37530;DHT22;23374;52.758;6.872;2023-05-16T12:24:45;15.50;99.90
37530;DHT22;23374;52.758;6.872;2023-05-16T12:27:07;15.50;1.00
37530;DHT22;23374;52.758;6.872;2023-05-16T12:29:30;15.50;1.00
37530;DHT22;23374;52.758;6.872;2023-05-16T12:31:52;15.40;99.90
37530;DHT22;23374;52.758;6.872;2023-05-16T12:34:19;15.20;99.90
37530;DHT22;23374;52.758;6.872;2023-05-16T12:36:40;15.10;1.00
37530;DHT22;23374;52.758;6.872;2023-05-16T12:39:02;14.90;1.00
37530;DHT22;23374;52.758;6.872;2023-05-16T12:41:23;14.70;1.00
37530;DHT22;23374;52.758;6.872;2023-05-16T12:43:43;14.60;99.90
37530;DHT22;23374;52.758;6.872;2023-05-16T12:46:09;14.50;99.90
37530;DHT22;23374;52.758;6.872;2023-05-16T12:48:33;14.30;99.90
37530;DHT22;23374;52.758;6.872;2023-05-16T12:50:56;14.30;99.90
37530;DHT22;23374;52.758;6.872;2023-05-16T12:53:18;14.40;99.90
37530;DHT22;23374;52.758;6.872;2023-05-16T12:55:38;14.30;99.90
37530;DHT22;23374;52.758;6.872;2023-05-16T12:58:00;14.30;99.90
37530;DHT22;23374;52.758;6.872;2023-05-16T13:00:20;14.20;99.90
37530;DHT22;23374;52.758;6.872;2023-05-16T13:02:42;14.30;99.90
37530;DHT22;23374;52.758;6.872;2023-05-16T13:05:04;14.40;99.90
37530;DHT22;23374;52.758;6.872;2023-05-16T13:07:26;14.60;99.90
37530;DHT22;23374;52.758;6.872;2023-05-16T13:09:46;14.70;99.90
37530;DHT22;23374;52.758;6.872;2023-05-16T13:12:07;14.70;99.90
37530;DHT22;23374;52.758;6.872;2023-05-16T13:14:27;14.70;99.90
37530;DHT22;23374;52.758;6.872;2023-05-16T13:16:48;14.60;99.90
37530;DHT22;23374;52.758;6.872;2023-05-16T13:19:08;14.50;99.90
37530;DHT22;23374;52.758;6.872;2023-05-16T13:21:28;14.40;99.90
37530;DHT22;23374;52.758;6.872;2023-05-16T13:23:50;14.30;99.90
37530;DHT22;23374;52.758;6.872;2023-05-16T13:26:11;14.30;99.90
37530;DHT22;23374;52.758;6.872;2023-05-16T13:28:31;14.30;99.90
37530;DHT22;23374;52.758;6.872;2023-05-16T13:30:52;14.30;99.90
37530;DHT22;23374;52.758;6.872;2023-05-16T13:33:12;14.50;99.90
37530;DHT22;23374;52.758;6.872;2023-05-16T13:35:33;14.60;99.90
37530;DHT22;23374;52.758;6.872;2023-05-16T13:37:53;14.90;99.90
37530;DHT22;23374;52.758;6.872;2023-05-16T13:40:13;15.10;99.90
37530;DHT22;23374;52.758;6.872;2023-05-16T13:42:33;15.00;99.90
37530;DHT22;23374;52.758;6.872;2023-05-16T13:44:53;15.00;99.30
37530;DHT22;23374;52.758;6.872;2023-05-16T13:47:14;15.10;99.90
37530;DHT22;23374;52.758;6.872;2023-05-16T13:49:35;15.20;99.90
37530;DHT22;23374;52.758;6.872;2023-05-16T13:51:56;15.30;99.90
37530;DHT22;23374;52.758;6.872;2023-05-16T13:54:18;15.20;99.90
37530;DHT22;23374;52.758;6.872;2023-05-16T13:56:39;15.10;99.90
37530;DHT22;23374;52.758;6.872;2023-05-16T13:58:59;15.10;99.90
37530;DHT22;23374;52.758;6.872;2023-05-16T14:01:20;15.00;99.90
37530;DHT22;23374;52.758;6.872;2023-05-16T14:03:40;14.90;99.90
37530;DHT22;23374;52.758;6.872;2023-05-16T14:06:01;14.80;99.90
37530;DHT22;23374;52.758;6.872;2023-05-16T14:08:21;14.70;1.00
37530;DHT22;23374;52.758;6.872;2023-05-16T14:10:42;14.60;99.90
37530;DHT22;23374;52.758;6.872;2023-05-16T14:13:02;14.50;99.90
37530;DHT22;23374;52.758;6.872;2023-05-16T14:15:23;14.50;99.90
37530;DHT22;23374;52.758;6.872;2023-05-16T14:17:43;14.40;99.90
37530;DHT22;23374;52.758;6.872;2023-05-16T14:20:05;14.30;99.90
37530;DHT22;23374;52.758;6.872;2023-05-16T14:22:28;14.20;99.90
37530;DHT22;23374;52.758;6.872;2023-05-16T14:24:51;14.20;99.90
37530;DHT22;23374;52.758;6.872;2023-05-16T14:27:11;14.10;99.90
37530;DHT22;23374;52.758;6.872;2023-05-16T14:29:34;14.10;99.90
37530;DHT22;23374;52.758;6.872;2023-05-16T14:31:54;14.10;99.90
37530;DHT22;23374;52.758;6.872;2023-05-16T14:34:15;14.10;99.90
37530;DHT22;23374;52.758;6.872;2023-05-16T14:36:36;14.10;99.90
37530;DHT22;23374;52.758;6.872;2023-05-16T14:38:57;14.10;99.90
37530;DHT22;23374;52.758;6.872;2023-05-16T14:41:17;14.20;99.90
37530;DHT22;23374;52.758;6.872;2023-05-16T14:43:38;14.20;99.90
37530;DHT22;23374;52.758;6.872;2023-05-16T14:45:58;14.20;99.90
37530;DHT22;23374;52.758;6.872;2023-05-16T14:48:19;14.20;91.70
37530;DHT22;23374;52.758;6.872;2023-05-16T14:50:39;14.30;91.20
37530;DHT22;23374;52.758;6.872;2023-05-16T14:52:59;14.40;55.50
37530;DHT22;23374;52.758;6.872;2023-05-16T14:55:20;14.30;56.40
37530;DHT22;23374;52.758;6.872;2023-05-16T14:57:42;14.30;36.20
37530;DHT22;23374;52.758;6.872;2023-05-16T15:00:05;14.20;31.20
37530;DHT22;23374;52.758;6.872;2023-05-16T15:02:26;14.00;99.90
37530;DHT22;23374;52.758;6.872;2023-05-16T15:04:47;13.90;99.90
37530;DHT22;23374;52.758;6.872;2023-05-16T15:07:07;13.70;99.90
37530;DHT22;23374;52.758;6.872;2023-05-16T15:09:28;13.60;1.00
37530;DHT22;23374;52.758;6.872;2023-05-16T15:11:48;13.40;1.00
37530;DHT22;23374;52.758;6.872;2023-05-16T15:14:08;13.40;1.00